sensor_id;sensor_type;location;lat;lon;timestamp;P1;durP1;ratioP1;P2;durP2;ratioP2
22764;SDS011;11549;50.852;3.816;2023-05-01T00:00:21;7.07;;;6.32;;
22764;SDS011;11549;50.852;3.816;2023-05-01T00:02:49;7.50;;;5.90;;
22764;SDS011;11549;50.852;3.816;2023-05-01T00:05:18;7.13;;;6.13;;
22764;SDS011;11549;50.852;3.816;2023-05-01T00:07:46;5.93;;;5.20;;
22764;SDS011;11549;50.852;3.816;2023-05-01T00:10:15;6.72;;;5.10;;
22764;SDS011;11549;50.852;3.816;2023-05-01T00:12:44;7.13;;;6.32;;
22764;SDS011;11549;50.852;3.816;2023-05-01T00:15:14;7.55;;;6.32;;
22764;SDS011;11549;50.852;3.816;2023-05-01T00:17:42;6.03;;;5.43;;
22764;SDS011;11549;50.852;3.816;2023-05-01T00:20:11;7.35;;;5.85;;
22764;SDS011;11549;50.852;3.816;2023-05-01T00:22:39;7.05;;;6.35;;
22764;SDS011;11549;50.852;3.816;2023-05-01T00:25:08;7.57;;;5.95;;
22764;SDS011;11549;50.852;3.816;2023-05-01T00:27:37;6.45;;;5.63;;
22764;SDS011;11549;50.852;3.816;2023-05-01T00:30:06;6.20;;;5.60;;
22764;SDS011;11549;50.852;3.816;2023-05-01T00:32:36;6.78;;;6.07;;
22764;SDS011;11549;50.852;3.816;2023-05-01T00:35:05;6.82;;;5.95;;
22764;SDS011;11549;50.852;3.816;2023-05-01T00:37:33;7.50;;;6.80;;
22764;SDS011;11549;50.852;3.816;2023-05-01T00:40:02;7.63;;;6.07;;
22764;SDS011;11549;50.852;3.816;2023-05-01T00:42:34;8.98;;;6.95;;
22764;SDS011;11549;50.852;3.816;2023-05-01T00:45:05;8.57;;;7.30;;
22764;SDS011;11549;50.852;3.816;2023-05-01T00:47:35;9.43;;;7.68;;
22764;SDS011;11549;50.852;3.816;2023-05-01T00:50:04;8.95;;;7.10;;
22764;SDS011;11549;50.852;3.816;2023-05-01T00:52:34;8.48;;;7.20;;
22764;SDS011;11549;50.852;3.816;2023-05-01T00:55:02;8.45;;;7.43;;
22764;SDS011;11549;50.852;3.816;2023-05-01T00:57:31;8.07;;;7.28;;
22764;SDS011;11549;50.852;3.816;2023-05-01T01:00:00;9.23;;;8.10;;
22764;SDS011;11549;50.852;3.816;2023-05-01T01:02:30;8.32;;;7.53;;
22764;SDS011;11549;50.852;3.816;2023-05-01T01:04:59;7.57;;;6.78;;
22764;SDS011;11549;50.852;3.816;2023-05-01T01:07:32;9.63;;;7.63;;
22764;SDS011;11549;50.852;3.816;2023-05-01T01:10:11;8.73;;;7.30;;
22764;SDS011;11549;50.852;3.816;2023-05-01T01:12:51;7.53;;;6.82;;
22764;SDS011;11549;50.852;3.816;2023-05-01T01:15:33;6.65;;;5.47;;
22764;SDS011;11549;50.852;3.816;2023-05-01T01:18:07;9.35;;;7.15;;
22764;SDS011;11549;50.852;3.816;2023-05-01T01:20:42;9.57;;;6.63;;
22764;SDS011;11549;50.852;3.816;2023-05-01T01:26:37;7.90;;;6.75;;
22764;SDS011;11549;50.852;3.816;2023-05-01T01:32:28;8.65;;;7.03;;
22764;SDS011;11549;50.852;3.816;2023-05-01T01:35:15;11.55;;;7.85;;
22764;SDS011;11549;50.852;3.816;2023-05-01T01:37:47;10.23;;;7.50;;
22764;SDS011;11549;50.852;3.816;2023-05-01T01:40:20;8.88;;;6.90;;
22764;SDS011;11549;50.852;3.816;2023-05-01T01:42:53;7.47;;;6.00;;
22764;SDS011;11549;50.852;3.816;2023-05-01T01:45:28;7.70;;;6.05;;
22764;SDS011;11549;50.852;3.816;2023-05-01T01:48:01;8.00;;;6.47;;
22764;SDS011;11549;50.852;3.816;2023-05-01T01:50:33;7.53;;;6.70;;
22764;SDS011;11549;50.852;3.816;2023-05-01T01:53:04;10.25;;;8.13;;
22764;SDS011;11549;50.852;3.816;2023-05-01T01:55:35;9.73;;;7.15;;
22764;SDS011;11549;50.852;3.816;2023-05-01T01:58:07;8.48;;;7.57;;
22764;SDS011;11549;50.852;3.816;2023-05-01T02:00:38;9.43;;;8.52;;
22764;SDS011;11549;50.852;3.816;2023-05-01T02:03:08;8.13;;;7.38;;
22764;SDS011;11549;50.852;3.816;2023-05-01T02:05:41;12.63;;;8.50;;
22764;SDS011;11549;50.852;3.816;2023-05-01T02:08:10;10.38;;;8.20;;
22764;SDS011;11549;50.852;3.816;2023-05-01T02:10:41;10.50;;;8.50;;
22764;SDS011;11549;50.852;3.816;2023-05-01T02:13:10;9.32;;;8.43;;
22764;SDS011;11549;50.852;3.816;2023-05-01T02:15:41;9.30;;;7.80;;
22764;SDS011;11549;50.852;3.816;2023-05-01T02:18:11;8.05;;;7.25;;
22764;SDS011;11549;50.852;3.816;2023-05-01T02:20:42;9.57;;;7.50;;
22764;SDS011;11549;50.852;3.816;2023-05-01T02:23:11;9.57;;;8.07;;
22764;SDS011;11549;50.852;3.816;2023-05-01T02:25:40;11.68;;;8.02;;
22764;SDS011;11549;50.852;3.816;2023-05-01T02:28:11;10.10;;;8.20;;
22764;SDS011;11549;50.852;3.816;2023-05-01T02:30:40;9.13;;;8.23;;
22764;SDS011;11549;50.852;3.816;2023-05-01T02:33:08;9.27;;;8.02;;
22764;SDS011;11549;50.852;3.816;2023-05-01T02:35:40;9.25;;;7.68;;
22764;SDS011;11549;50.852;3.816;2023-05-01T02:38:12;8.48;;;7.57;;
22764;SDS011;11549;50.852;3.816;2023-05-01T02:40:43;9.15;;;7.50;;
22764;SDS011;11549;50.852;3.816;2023-05-01T02:43:14;10.20;;;7.72;;
22764;SDS011;11549;50.852;3.816;2023-05-01T02:45:45;8.98;;;7.80;;
22764;SDS011;11549;50.852;3.816;2023-05-01T02:48:17;8.98;;;7.75;;
22764;SDS011;11549;50.852;3.816;2023-05-01T02:50:51;9.00;;;7.70;;
22764;SDS011;11549;50.852;3.816;2023-05-01T02:53:20;9.25;;;7.97;;
22764;SDS011;11549;50.852;3.816;2023-05-01T02:55:49;8.95;;;8.05;;
22764;SDS011;11549;50.852;3.816;2023-05-01T02:58:17;8.60;;;6.75;;
22764;SDS011;11549;50.852;3.816;2023-05-01T03:00:47;8.10;;;7.25;;
22764;SDS011;11549;50.852;3.816;2023-05-01T03:03:16;7.50;;;6.70;;
22764;SDS011;11549;50.852;3.816;2023-05-01T03:05:44;8.90;;;7.20;;
22764;SDS011;11549;50.852;3.816;2023-05-01T03:08:14;7.78;;;6.65;;
22764;SDS011;11549;50.852;3.816;2023-05-01T03:10:43;7.82;;;7.03;;
22764;SDS011;11549;50.852;3.816;2023-05-01T03:13:11;11.07;;;9.98;;
22764;SDS011;11549;50.852;3.816;2023-05-01T03:15:40;12.27;;;10.27;;
22764;SDS011;11549;50.852;3.816;2023-05-01T03:18:08;10.65;;;9.52;;
22764;SDS011;11549;50.852;3.816;2023-05-01T03:20:37;9.90;;;8.90;;
22764;SDS011;11549;50.852;3.816;2023-05-01T03:23:05;9.82;;;8.82;;
22764;SDS011;11549;50.852;3.816;2023-05-01T03:25:36;9.20;;;8.40;;
22764;SDS011;11549;50.852;3.816;2023-05-01T03:28:04;11.25;;;9.45;;
22764;SDS011;11549;50.852;3.816;2023-05-01T03:30:32;11.63;;;10.48;;
22764;SDS011;11549;50.852;3.816;2023-05-01T03:33:01;9.80;;;8.52;;
22764;SDS011;11549;50.852;3.816;2023-05-01T03:35:30;10.80;;;9.50;;
22764;SDS011;11549;50.852;3.816;2023-05-01T03:37:58;9.95;;;9.05;;
22764;SDS011;11549;50.852;3.816;2023-05-01T03:40:27;9.18;;;8.32;;
22764;SDS011;11549;50.852;3.816;2023-05-01T03:42:56;9.95;;;8.93;;
22764;SDS011;11549;50.852;3.816;2023-05-01T03:45:25;10.27;;;9.27;;
22764;SDS011;11549;50.852;3.816;2023-05-01T03:47:53;10.45;;;9.40;;
22764;SDS011;11549;50.852;3.816;2023-05-01T03:50:22;10.70;;;9.07;;
22764;SDS011;11549;50.852;3.816;2023-05-01T03:52:50;11.48;;;9.63;;
22764;SDS011;11549;50.852;3.816;2023-05-01T03:55:19;10.40;;;9.38;;
22764;SDS011;11549;50.852;3.816;2023-05-01T03:57:47;10.60;;;9.50;;
22764;SDS011;11549;50.852;3.816;2023-05-01T04:00:19;12.68;;;10.18;;
22764;SDS011;11549;50.852;3.816;2023-05-01T04:02:47;10.63;;;9.52;;
22764;SDS011;11549;50.852;3.816;2023-05-01T04:05:16;11.00;;;9.30;;
22764;SDS011;11549;50.852;3.816;2023-05-01T04:07:46;9.80;;;8.80;;
22764;SDS011;11549;50.852;3.816;2023-05-01T04:10:15;11.80;;;10.18;;
22764;SDS011;11549;50.852;3.816;2023-05-01T04:12:44;11.18;;;9.98;;
22764;SDS011;11549;50.852;3.816;2023-05-01T04:15:12;13.43;;;11.13;;
22764;SDS011;11549;50.852;3.816;2023-05-01T04:17:42;12.98;;;10.90;;
22764;SDS011;11549;50.852;3.816;2023-05-01T04:20:11;14.05;;;11.57;;
22764;SDS011;11549;50.852;3.816;2023-05-01T04:22:39;14.15;;;12.48;;
22764;SDS011;11549;50.852;3.816;2023-05-01T04:25:08;14.30;;;12.80;;
22764;SDS011;11549;50.852;3.816;2023-05-01T04:27:36;23.88;;;15.52;;
22764;SDS011;11549;50.852;3.816;2023-05-01T04:30:05;14.13;;;12.60;;
22764;SDS011;11549;50.852;3.816;2023-05-01T04:32:34;16.65;;;13.18;;
22764;SDS011;11549;50.852;3.816;2023-05-01T04:35:05;13.57;;;12.20;;
22764;SDS011;11549;50.852;3.816;2023-05-01T04:37:34;15.25;;;13.65;;
22764;SDS011;11549;50.852;3.816;2023-05-01T04:40:03;14.27;;;12.48;;
22764;SDS011;11549;50.852;3.816;2023-05-01T04:42:35;14.23;;;12.73;;
22764;SDS011;11549;50.852;3.816;2023-05-01T04:45:03;14.77;;;13.30;;
22764;SDS011;11549;50.852;3.816;2023-05-01T04:47:32;17.48;;;15.30;;
22764;SDS011;11549;50.852;3.816;2023-05-01T04:50:01;16.42;;;14.73;;
22764;SDS011;11549;50.852;3.816;2023-05-01T04:52:31;18.98;;;16.98;;
22764;SDS011;11549;50.852;3.816;2023-05-01T04:54:59;19.90;;;18.00;;
22764;SDS011;11549;50.852;3.816;2023-05-01T04:57:29;21.23;;;19.05;;
22764;SDS011;11549;50.852;3.816;2023-05-01T04:59:57;22.25;;;19.95;;
22764;SDS011;11549;50.852;3.816;2023-05-01T05:02:26;22.77;;;20.02;;
22764;SDS011;11549;50.852;3.816;2023-05-01T05:04:54;23.77;;;21.20;;
22764;SDS011;11549;50.852;3.816;2023-05-01T05:07:23;24.60;;;21.98;;
22764;SDS011;11549;50.852;3.816;2023-05-01T05:09:52;28.70;;;23.17;;
22764;SDS011;11549;50.852;3.816;2023-05-01T05:12:21;27.52;;;24.55;;
22764;SDS011;11549;50.852;3.816;2023-05-01T05:14:50;28.80;;;25.05;;
22764;SDS011;11549;50.852;3.816;2023-05-01T05:17:18;29.55;;;25.58;;
22764;SDS011;11549;50.852;3.816;2023-05-01T05:19:47;32.15;;;27.77;;
22764;SDS011;11549;50.852;3.816;2023-05-01T05:22:15;33.67;;;29.10;;
22764;SDS011;11549;50.852;3.816;2023-05-01T05:24:44;35.20;;;28.48;;
22764;SDS011;11549;50.852;3.816;2023-05-01T05:27:14;37.67;;;31.17;;
22764;SDS011;11549;50.852;3.816;2023-05-01T05:29:42;38.25;;;32.78;;
22764;SDS011;11549;50.852;3.816;2023-05-01T05:32:10;38.97;;;32.67;;
22764;SDS011;11549;50.852;3.816;2023-05-01T05:34:39;40.65;;;33.33;;
22764;SDS011;11549;50.852;3.816;2023-05-01T05:37:08;39.42;;;33.67;;
22764;SDS011;11549;50.852;3.816;2023-05-01T05:39:37;41.10;;;33.22;;
22764;SDS011;11549;50.852;3.816;2023-05-01T05:42:05;40.65;;;33.88;;
22764;SDS011;11549;50.852;3.816;2023-05-01T05:44:35;40.10;;;34.15;;
22764;SDS011;11549;50.852;3.816;2023-05-01T05:47:04;42.85;;;34.47;;
22764;SDS011;11549;50.852;3.816;2023-05-01T05:49:32;46.45;;;35.92;;
22764;SDS011;11549;50.852;3.816;2023-05-01T05:52:01;45.25;;;36.38;;
22764;SDS011;11549;50.852;3.816;2023-05-01T05:54:29;46.20;;;35.78;;
22764;SDS011;11549;50.852;3.816;2023-05-01T05:56:58;44.13;;;35.45;;
22764;SDS011;11549;50.852;3.816;2023-05-01T05:59:26;45.70;;;36.10;;
22764;SDS011;11549;50.852;3.816;2023-05-01T06:01:56;44.10;;;36.10;;
22764;SDS011;11549;50.852;3.816;2023-05-01T06:04:25;51.38;;;37.33;;
22764;SDS011;11549;50.852;3.816;2023-05-01T06:06:53;49.45;;;37.95;;
22764;SDS011;11549;50.852;3.816;2023-05-01T06:09:22;50.78;;;38.30;;
22764;SDS011;11549;50.852;3.816;2023-05-01T06:11:51;46.45;;;35.92;;
22764;SDS011;11549;50.852;3.816;2023-05-01T06:14:21;53.22;;;38.03;;
22764;SDS011;11549;50.852;3.816;2023-05-01T06:16:49;48.63;;;36.58;;
22764;SDS011;11549;50.852;3.816;2023-05-01T06:19:19;51.45;;;37.75;;
22764;SDS011;11549;50.852;3.816;2023-05-01T06:21:48;48.10;;;36.78;;
22764;SDS011;11549;50.852;3.816;2023-05-01T06:24:16;51.10;;;37.45;;
22764;SDS011;11549;50.852;3.816;2023-05-01T06:26:45;51.60;;;37.28;;
22764;SDS011;11549;50.852;3.816;2023-05-01T06:29:13;51.50;;;37.65;;
22764;SDS011;11549;50.852;3.816;2023-05-01T06:31:41;54.70;;;39.83;;
22764;SDS011;11549;50.852;3.816;2023-05-01T06:34:10;48.35;;;36.55;;
22764;SDS011;11549;50.852;3.816;2023-05-01T06:36:40;49.25;;;37.72;;
22764;SDS011;11549;50.852;3.816;2023-05-01T06:39:08;56.78;;;39.65;;
22764;SDS011;11549;50.852;3.816;2023-05-01T06:41:36;55.65;;;39.83;;
22764;SDS011;11549;50.852;3.816;2023-05-01T06:44:05;57.83;;;39.95;;
22764;SDS011;11549;50.852;3.816;2023-05-01T06:46:33;52.80;;;39.25;;
22764;SDS011;11549;50.852;3.816;2023-05-01T06:49:01;52.75;;;39.33;;
22764;SDS011;11549;50.852;3.816;2023-05-01T06:51:30;58.00;;;40.00;;
22764;SDS011;11549;50.852;3.816;2023-05-01T06:53:59;52.75;;;38.30;;
22764;SDS011;11549;50.852;3.816;2023-05-01T06:56:28;53.10;;;39.08;;
22764;SDS011;11549;50.852;3.816;2023-05-01T06:58:57;51.45;;;37.80;;
22764;SDS011;11549;50.852;3.816;2023-05-01T07:01:25;50.88;;;37.88;;
22764;SDS011;11549;50.852;3.816;2023-05-01T07:03:54;51.63;;;39.40;;
22764;SDS011;11549;50.852;3.816;2023-05-01T07:06:22;51.25;;;38.75;;
22764;SDS011;11549;50.852;3.816;2023-05-01T07:08:51;50.88;;;37.08;;
22764;SDS011;11549;50.852;3.816;2023-05-01T07:11:21;48.63;;;38.55;;
22764;SDS011;11549;50.852;3.816;2023-05-01T07:13:49;46.78;;;35.85;;
22764;SDS011;11549;50.852;3.816;2023-05-01T07:16:17;45.65;;;35.58;;
22764;SDS011;11549;50.852;3.816;2023-05-01T07:18:46;45.65;;;35.95;;
22764;SDS011;11549;50.852;3.816;2023-05-01T07:21:14;43.25;;;35.47;;
22764;SDS011;11549;50.852;3.816;2023-05-01T07:23:42;44.45;;;35.17;;
22764;SDS011;11549;50.852;3.816;2023-05-01T07:26:11;45.13;;;35.10;;
22764;SDS011;11549;50.852;3.816;2023-05-01T07:28:41;44.75;;;34.97;;
22764;SDS011;11549;50.852;3.816;2023-05-01T07:31:09;42.78;;;33.30;;
22764;SDS011;11549;50.852;3.816;2023-05-01T07:33:38;43.80;;;34.95;;
22764;SDS011;11549;50.852;3.816;2023-05-01T07:36:07;47.38;;;35.58;;
22764;SDS011;11549;50.852;3.816;2023-05-01T07:38:35;45.00;;;34.80;;
22764;SDS011;11549;50.852;3.816;2023-05-01T07:41:04;42.72;;;33.97;;
22764;SDS011;11549;50.852;3.816;2023-05-01T07:43:32;40.97;;;33.38;;
22764;SDS011;11549;50.852;3.816;2023-05-01T07:46:02;40.55;;;32.80;;
22764;SDS011;11549;50.852;3.816;2023-05-01T07:48:31;38.60;;;31.42;;
22764;SDS011;11549;50.852;3.816;2023-05-01T07:51:02;36.65;;;29.35;;
22764;SDS011;11549;50.852;3.816;2023-05-01T07:53:31;39.35;;;31.25;;
22764;SDS011;11549;50.852;3.816;2023-05-01T07:56:06;38.28;;;30.88;;
22764;SDS011;11549;50.852;3.816;2023-05-01T07:58:35;38.45;;;30.02;;
22764;SDS011;11549;50.852;3.816;2023-05-01T08:01:07;35.53;;;29.05;;
22764;SDS011;11549;50.852;3.816;2023-05-01T08:03:39;35.40;;;28.92;;
22764;SDS011;11549;50.852;3.816;2023-05-01T08:06:07;34.28;;;28.73;;
22764;SDS011;11549;50.852;3.816;2023-05-01T08:08:36;35.63;;;28.08;;
22764;SDS011;11549;50.852;3.816;2023-05-01T08:11:04;37.13;;;29.58;;
22764;SDS011;11549;50.852;3.816;2023-05-01T08:13:33;34.20;;;28.48;;
22764;SDS011;11549;50.852;3.816;2023-05-01T08:16:02;34.00;;;28.90;;
22764;SDS011;11549;50.852;3.816;2023-05-01T08:18:32;36.40;;;28.92;;
22764;SDS011;11549;50.852;3.816;2023-05-01T08:21:00;33.90;;;27.52;;
22764;SDS011;11549;50.852;3.816;2023-05-01T08:23:29;33.15;;;27.27;;
22764;SDS011;11549;50.852;3.816;2023-05-01T08:25:57;32.75;;;26.98;;
22764;SDS011;11549;50.852;3.816;2023-05-01T08:28:25;32.67;;;26.23;;
22764;SDS011;11549;50.852;3.816;2023-05-01T08:30:54;31.90;;;25.67;;
22764;SDS011;11549;50.852;3.816;2023-05-01T08:33:22;31.77;;;26.98;;
22764;SDS011;11549;50.852;3.816;2023-05-01T08:35:52;30.65;;;25.90;;
22764;SDS011;11549;50.852;3.816;2023-05-01T08:38:20;30.92;;;26.02;;
22764;SDS011;11549;50.852;3.816;2023-05-01T08:40:50;32.17;;;26.75;;
22764;SDS011;11549;50.852;3.816;2023-05-01T08:43:19;30.25;;;25.38;;
22764;SDS011;11549;50.852;3.816;2023-05-01T08:45:49;34.00;;;26.27;;
22764;SDS011;11549;50.852;3.816;2023-05-01T08:48:19;34.38;;;25.38;;
22764;SDS011;11549;50.852;3.816;2023-05-01T08:50:51;30.35;;;25.15;;
22764;SDS011;11549;50.852;3.816;2023-05-01T08:53:23;33.87;;;26.90;;
22764;SDS011;11549;50.852;3.816;2023-05-01T08:55:53;30.85;;;25.13;;
22764;SDS011;11549;50.852;3.816;2023-05-01T08:58:23;28.88;;;24.63;;
22764;SDS011;11549;50.852;3.816;2023-05-01T09:00:55;30.67;;;25.00;;
22764;SDS011;11549;50.852;3.816;2023-05-01T09:03:26;30.65;;;25.08;;
22764;SDS011;11549;50.852;3.816;2023-05-01T09:05:59;28.85;;;23.80;;
22764;SDS011;11549;50.852;3.816;2023-05-01T09:08:30;31.23;;;24.77;;
22764;SDS011;11549;50.852;3.816;2023-05-01T09:11:00;28.38;;;23.40;;
22764;SDS011;11549;50.852;3.816;2023-05-01T09:13:29;31.15;;;25.02;;
22764;SDS011;11549;50.852;3.816;2023-05-01T09:15:58;27.95;;;22.73;;
22764;SDS011;11549;50.852;3.816;2023-05-01T09:18:27;26.27;;;22.27;;
22764;SDS011;11549;50.852;3.816;2023-05-01T09:20:56;26.00;;;22.45;;
22764;SDS011;11549;50.852;3.816;2023-05-01T09:23:27;26.05;;;22.08;;
22764;SDS011;11549;50.852;3.816;2023-05-01T09:25:56;27.08;;;21.40;;
22764;SDS011;11549;50.852;3.816;2023-05-01T09:28:40;25.23;;;21.48;;
22764;SDS011;11549;50.852;3.816;2023-05-01T09:31:22;28.90;;;22.08;;
22764;SDS011;11549;50.852;3.816;2023-05-01T09:33:54;27.52;;;22.63;;
22764;SDS011;11549;50.852;3.816;2023-05-01T09:36:25;26.42;;;21.08;;
22764;SDS011;11549;50.852;3.816;2023-05-01T09:38:56;24.88;;;20.83;;
22764;SDS011;11549;50.852;3.816;2023-05-01T09:41:26;22.98;;;19.85;;
22764;SDS011;11549;50.852;3.816;2023-05-01T09:43:57;26.63;;;21.48;;
22764;SDS011;11549;50.852;3.816;2023-05-01T09:46:27;25.13;;;19.98;;
22764;SDS011;11549;50.852;3.816;2023-05-01T09:49:07;24.45;;;20.50;;
22764;SDS011;11549;50.852;3.816;2023-05-01T09:51:37;23.20;;;20.30;;
22764;SDS011;11549;50.852;3.816;2023-05-01T09:54:05;24.30;;;20.10;;
22764;SDS011;11549;50.852;3.816;2023-05-01T09:56:45;23.08;;;20.45;;
22764;SDS011;11549;50.852;3.816;2023-05-01T09:59:15;23.85;;;19.17;;
22764;SDS011;11549;50.852;3.816;2023-05-01T10:01:45;21.55;;;18.08;;
22764;SDS011;11549;50.852;3.816;2023-05-01T10:04:16;23.30;;;17.75;;
22764;SDS011;11549;50.852;3.816;2023-05-01T10:06:57;22.48;;;17.17;;
22764;SDS011;11549;50.852;3.816;2023-05-01T10:09:27;21.40;;;16.70;;
22764;SDS011;11549;50.852;3.816;2023-05-01T10:11:56;22.85;;;18.23;;
22764;SDS011;11549;50.852;3.816;2023-05-01T10:14:24;22.13;;;17.02;;
22764;SDS011;11549;50.852;3.816;2023-05-01T10:16:55;23.88;;;18.90;;
22764;SDS011;11549;50.852;3.816;2023-05-01T10:19:24;23.02;;;18.50;;
22764;SDS011;11549;50.852;3.816;2023-05-01T10:21:53;25.02;;;19.15;;
22764;SDS011;11549;50.852;3.816;2023-05-01T10:24:23;24.15;;;19.27;;
22764;SDS011;11549;50.852;3.816;2023-05-01T10:26:51;26.60;;;19.60;;
22764;SDS011;11549;50.852;3.816;2023-05-01T10:29:20;26.00;;;20.30;;
22764;SDS011;11549;50.852;3.816;2023-05-01T10:31:51;25.85;;;20.75;;
22764;SDS011;11549;50.852;3.816;2023-05-01T10:34:20;25.42;;;20.95;;
22764;SDS011;11549;50.852;3.816;2023-05-01T10:36:53;25.45;;;21.00;;
22764;SDS011;11549;50.852;3.816;2023-05-01T10:39:30;27.40;;;20.60;;
22764;SDS011;11549;50.852;3.816;2023-05-01T10:41:59;29.73;;;22.15;;
22764;SDS011;11549;50.852;3.816;2023-05-01T10:44:29;28.85;;;22.50;;
22764;SDS011;11549;50.852;3.816;2023-05-01T10:46:57;30.90;;;20.85;;
22764;SDS011;11549;50.852;3.816;2023-05-01T10:52:27;26.42;;;21.75;;
22764;SDS011;11549;50.852;3.816;2023-05-01T10:55:07;27.70;;;21.08;;
22764;SDS011;11549;50.852;3.816;2023-05-01T10:57:59;22.47;;;19.40;;
22764;SDS011;11549;50.852;3.816;2023-05-01T11:00:28;26.70;;;20.75;;
22764;SDS011;11549;50.852;3.816;2023-05-01T11:06:04;23.20;;;19.45;;
22764;SDS011;11549;50.852;3.816;2023-05-01T11:08:34;22.27;;;18.75;;
22764;SDS011;11549;50.852;3.816;2023-05-01T11:14:15;23.52;;;20.00;;
22764;SDS011;11549;50.852;3.816;2023-05-01T11:16:44;23.35;;;19.75;;
22764;SDS011;11549;50.852;3.816;2023-05-01T11:22:13;23.63;;;20.35;;
22764;SDS011;11549;50.852;3.816;2023-05-01T11:24:42;23.30;;;19.10;;
22764;SDS011;11549;50.852;3.816;2023-05-01T11:27:15;21.73;;;19.30;;
22764;SDS011;11549;50.852;3.816;2023-05-01T11:29:44;21.55;;;18.95;;
22764;SDS011;11549;50.852;3.816;2023-05-01T11:32:20;22.83;;;19.55;;
22764;SDS011;11549;50.852;3.816;2023-05-01T11:34:51;23.40;;;20.05;;
22764;SDS011;11549;50.852;3.816;2023-05-01T11:40:17;24.17;;;20.10;;
22764;SDS011;11549;50.852;3.816;2023-05-01T11:42:49;24.17;;;19.70;;
22764;SDS011;11549;50.852;3.816;2023-05-01T11:45:18;25.73;;;20.65;;
22764;SDS011;11549;50.852;3.816;2023-05-01T11:47:47;23.65;;;20.45;;
22764;SDS011;11549;50.852;3.816;2023-05-01T11:50:15;24.77;;;18.92;;
22764;SDS011;11549;50.852;3.816;2023-05-01T11:52:44;26.40;;;19.17;;
22764;SDS011;11549;50.852;3.816;2023-05-01T11:55:14;24.02;;;19.75;;
22764;SDS011;11549;50.852;3.816;2023-05-01T11:57:46;23.27;;;19.80;;
22764;SDS011;11549;50.852;3.816;2023-05-01T12:00:25;24.75;;;20.55;;
22764;SDS011;11549;50.852;3.816;2023-05-01T12:02:54;25.23;;;20.58;;
22764;SDS011;11549;50.852;3.816;2023-05-01T12:05:24;27.38;;;21.73;;
22764;SDS011;11549;50.852;3.816;2023-05-01T12:08:04;25.65;;;21.70;;
22764;SDS011;11549;50.852;3.816;2023-05-01T12:10:35;26.05;;;21.85;;
22764;SDS011;11549;50.852;3.816;2023-05-01T12:13:06;23.70;;;20.88;;
22764;SDS011;11549;50.852;3.816;2023-05-01T12:15:36;26.27;;;22.05;;
22764;SDS011;11549;50.852;3.816;2023-05-01T12:18:06;26.25;;;21.42;;
22764;SDS011;11549;50.852;3.816;2023-05-01T12:20:38;22.95;;;20.13;;
22764;SDS011;11549;50.852;3.816;2023-05-01T12:23:08;25.88;;;21.88;;
22764;SDS011;11549;50.852;3.816;2023-05-01T12:25:38;27.40;;;23.20;;
22764;SDS011;11549;50.852;3.816;2023-05-01T12:28:10;26.13;;;22.42;;
22764;SDS011;11549;50.852;3.816;2023-05-01T12:30:40;27.42;;;22.65;;
22764;SDS011;11549;50.852;3.816;2023-05-01T12:33:11;27.02;;;23.20;;
22764;SDS011;11549;50.852;3.816;2023-05-01T12:35:40;32.33;;;24.77;;
22764;SDS011;11549;50.852;3.816;2023-05-01T12:38:11;28.05;;;23.70;;
22764;SDS011;11549;50.852;3.816;2023-05-01T12:40:48;27.67;;;22.42;;
22764;SDS011;11549;50.852;3.816;2023-05-01T12:43:21;27.55;;;23.15;;
22764;SDS011;11549;50.852;3.816;2023-05-01T12:45:56;32.05;;;24.25;;
22764;SDS011;11549;50.852;3.816;2023-05-01T12:48:25;28.70;;;22.20;;
22764;SDS011;11549;50.852;3.816;2023-05-01T12:50:54;27.65;;;22.33;;
22764;SDS011;11549;50.852;3.816;2023-05-01T12:53:26;24.85;;;20.80;;
22764;SDS011;11549;50.852;3.816;2023-05-01T12:55:56;26.88;;;21.52;;
22764;SDS011;11549;50.852;3.816;2023-05-01T12:58:34;25.50;;;20.75;;
22764;SDS011;11549;50.852;3.816;2023-05-01T13:01:03;25.00;;;20.83;;
22764;SDS011;11549;50.852;3.816;2023-05-01T13:03:32;25.35;;;21.38;;
22764;SDS011;11549;50.852;3.816;2023-05-01T13:06:06;20.48;;;17.55;;
22764;SDS011;11549;50.852;3.816;2023-05-01T13:08:35;20.10;;;16.80;;
22764;SDS011;11549;50.852;3.816;2023-05-01T13:11:08;20.27;;;15.82;;
22764;SDS011;11549;50.852;3.816;2023-05-01T13:16:09;18.40;;;14.68;;
22764;SDS011;11549;50.852;3.816;2023-05-01T13:18:42;19.02;;;14.25;;
22764;SDS011;11549;50.852;3.816;2023-05-01T13:21:13;19.87;;;16.53;;
22764;SDS011;11549;50.852;3.816;2023-05-01T13:23:42;20.05;;;16.70;;
22764;SDS011;11549;50.852;3.816;2023-05-01T13:26:23;25.25;;;19.13;;
22764;SDS011;11549;50.852;3.816;2023-05-01T13:28:55;20.33;;;17.52;;
22764;SDS011;11549;50.852;3.816;2023-05-01T13:31:24;21.00;;;18.25;;
22764;SDS011;11549;50.852;3.816;2023-05-01T13:33:53;23.25;;;17.20;;
22764;SDS011;11549;50.852;3.816;2023-05-01T13:36:23;18.83;;;15.60;;
22764;SDS011;11549;50.852;3.816;2023-05-01T13:38:53;19.92;;;16.85;;
22764;SDS011;11549;50.852;3.816;2023-05-01T13:41:23;21.63;;;19.33;;
22764;SDS011;11549;50.852;3.816;2023-05-01T13:43:54;22.05;;;18.42;;
22764;SDS011;11549;50.852;3.816;2023-05-01T13:46:24;22.17;;;17.67;;
22764;SDS011;11549;50.852;3.816;2023-05-01T13:48:53;19.83;;;15.57;;
22764;SDS011;11549;50.852;3.816;2023-05-01T13:51:23;18.77;;;14.35;;
22764;SDS011;11549;50.852;3.816;2023-05-01T13:53:54;19.30;;;15.02;;
22764;SDS011;11549;50.852;3.816;2023-05-01T13:56:22;18.00;;;14.45;;
22764;SDS011;11549;50.852;3.816;2023-05-01T13:58:51;18.38;;;14.55;;
22764;SDS011;11549;50.852;3.816;2023-05-01T14:01:21;18.90;;;13.77;;
22764;SDS011;11549;50.852;3.816;2023-05-01T14:03:49;54.80;;;23.77;;
22764;SDS011;11549;50.852;3.816;2023-05-01T14:06:18;21.45;;;16.15;;
22764;SDS011;11549;50.852;3.816;2023-05-01T14:08:50;26.50;;;16.85;;
22764;SDS011;11549;50.852;3.816;2023-05-01T14:11:19;20.95;;;16.77;;
22764;SDS011;11549;50.852;3.816;2023-05-01T14:13:48;35.05;;;21.30;;
22764;SDS011;11549;50.852;3.816;2023-05-01T14:16:20;37.63;;;19.65;;
22764;SDS011;11549;50.852;3.816;2023-05-01T14:18:53;16.88;;;13.15;;
22764;SDS011;11549;50.852;3.816;2023-05-01T14:21:24;25.30;;;16.00;;
22764;SDS011;11549;50.852;3.816;2023-05-01T14:23:54;18.02;;;14.32;;
22764;SDS011;11549;50.852;3.816;2023-05-01T14:26:23;26.65;;;15.65;;
22764;SDS011;11549;50.852;3.816;2023-05-01T14:28:52;20.10;;;14.38;;
22764;SDS011;11549;50.852;3.816;2023-05-01T14:31:24;18.17;;;13.85;;
22764;SDS011;11549;50.852;3.816;2023-05-01T14:33:55;13.95;;;11.43;;
22764;SDS011;11549;50.852;3.816;2023-05-01T14:36:25;17.05;;;11.40;;
22764;SDS011;11549;50.852;3.816;2023-05-01T14:38:56;16.60;;;13.43;;
22764;SDS011;11549;50.852;3.816;2023-05-01T14:41:25;20.02;;;14.23;;
22764;SDS011;11549;50.852;3.816;2023-05-01T14:43:55;16.17;;;13.85;;
22764;SDS011;11549;50.852;3.816;2023-05-01T14:46:28;17.35;;;13.93;;
22764;SDS011;11549;50.852;3.816;2023-05-01T14:48:58;20.33;;;14.85;;
22764;SDS011;11549;50.852;3.816;2023-05-01T14:51:27;19.63;;;15.98;;
22764;SDS011;11549;50.852;3.816;2023-05-01T14:53:57;22.05;;;16.85;;
22764;SDS011;11549;50.852;3.816;2023-05-01T14:56:25;22.55;;;16.95;;
22764;SDS011;11549;50.852;3.816;2023-05-01T14:58:54;22.92;;;17.05;;
22764;SDS011;11549;50.852;3.816;2023-05-01T15:01:22;24.23;;;17.55;;
22764;SDS011;11549;50.852;3.816;2023-05-01T15:03:52;22.80;;;16.88;;
22764;SDS011;11549;50.852;3.816;2023-05-01T15:06:21;22.00;;;15.90;;
22764;SDS011;11549;50.852;3.816;2023-05-01T15:08:49;21.98;;;15.27;;